Flight Briefing for CPX409

Departure Arrival
Chicago/Rockford International Airport (KRFD)
Click to view FAA NOTAMS
Tulsa International Airport (KTUL)
Click to view FAA NOTAMS
Departure Time Arrival Time
N/A N/A
Aircraft Distance
B757-200SF 479nm
Departure METAR Arrival METAR
KRFD 212154Z 08020G32KT 10SM OVC060 13/04 A2995 RMK AO2 PK WND 07032/2150 PRESFR SLP145 T01280044 KTUL 212153Z 20019G31KT 10SM FEW048 24/10 A2947 RMK AO2 PK WND 20031/2115 SLP971 T02440100
Suggested Route
BDF J105 SGF VINTA2


View recent IFR Routes data
Notes



Charts and Procedures

Charts for KRFD
No chart available
Charts for KTUL
No chart available

Windy.com Weather Map